Terminal Aerodrome Forecast
Issued by NWS

Home | Current Version | Previous Version | Text Only | Print | Product List | Glossary On
Versions: 1 2 3 4 5 6 7 8 9 10 11 12 13 14 15 16 17 18
992
FTUS41 KBTV 261731
TAFMPV
TAF
KMPV 261731Z 2618/2718 32005KT P6SM SCT050 BKN070
     FM262100 VRB03KT P6SM VCSH SCT045 BKN070
      TEMPO 2621/2701 5SM -SHRA BR BKN045
     FM270100 VRB02KT P6SM SCT045 BKN070
     FM270900 00000KT P6SM BKN015
     FM271200 19005KT P6SM FEW050 SCT080=

USA.gov is the U.S. government's official web portal to all federal, state and local government web resources and services.